sensor_id;sensor_type;location;lat;lon;timestamp;P1;durP1;ratioP1;P2;durP2;ratioP2
75289;SDS011;63883;48.996;20.804;2024-01-11T00:01:03;58.42;;;20.75;;
75289;SDS011;63883;48.996;20.804;2024-01-11T00:03:38;52.60;;;19.23;;
75289;SDS011;63883;48.996;20.804;2024-01-11T00:06:04;55.50;;;21.52;;
75289;SDS011;63883;48.996;20.804;2024-01-11T00:08:30;72.53;;;24.45;;
75289;SDS011;63883;48.996;20.804;2024-01-11T00:10:55;66.45;;;24.20;;
75289;SDS011;63883;48.996;20.804;2024-01-11T00:13:21;68.57;;;23.75;;
75289;SDS011;63883;48.996;20.804;2024-01-11T00:15:47;61.70;;;21.83;;
75289;SDS011;63883;48.996;20.804;2024-01-11T00:18:13;58.08;;;21.80;;
75289;SDS011;63883;48.996;20.804;2024-01-11T00:20:38;52.38;;;18.95;;
75289;SDS011;63883;48.996;20.804;2024-01-11T00:23:04;49.78;;;16.08;;
75289;SDS011;63883;48.996;20.804;2024-01-11T00:25:29;40.88;;;15.15;;
75289;SDS011;63883;48.996;20.804;2024-01-11T00:27:55;44.38;;;16.52;;
75289;SDS011;63883;48.996;20.804;2024-01-11T00:30:21;45.63;;;16.65;;
75289;SDS011;63883;48.996;20.804;2024-01-11T00:32:48;37.83;;;14.02;;
75289;SDS011;63883;48.996;20.804;2024-01-11T00:35:14;45.13;;;16.70;;
75289;SDS011;63883;48.996;20.804;2024-01-11T00:37:40;39.25;;;14.30;;
75289;SDS011;63883;48.996;20.804;2024-01-11T00:40:06;40.08;;;16.35;;
75289;SDS011;63883;48.996;20.804;2024-01-11T00:42:32;41.92;;;17.92;;
75289;SDS011;63883;48.996;20.804;2024-01-11T00:44:59;37.85;;;14.98;;
75289;SDS011;63883;48.996;20.804;2024-01-11T00:47:25;37.55;;;15.52;;
75289;SDS011;63883;48.996;20.804;2024-01-11T00:49:51;33.75;;;12.88;;
75289;SDS011;63883;48.996;20.804;2024-01-11T00:52:17;28.85;;;12.32;;
75289;SDS011;63883;48.996;20.804;2024-01-11T00:54:43;31.85;;;11.77;;
75289;SDS011;63883;48.996;20.804;2024-01-11T00:57:08;29.08;;;13.05;;
75289;SDS011;63883;48.996;20.804;2024-01-11T00:59:34;32.95;;;13.27;;
75289;SDS011;63883;48.996;20.804;2024-01-11T01:02:00;34.42;;;13.15;;
75289;SDS011;63883;48.996;20.804;2024-01-11T01:04:25;30.10;;;12.15;;
75289;SDS011;63883;48.996;20.804;2024-01-11T01:06:51;30.30;;;12.57;;
75289;SDS011;63883;48.996;20.804;2024-01-11T01:09:16;40.78;;;15.15;;
75289;SDS011;63883;48.996;20.804;2024-01-11T01:11:42;39.67;;;14.13;;
75289;SDS011;63883;48.996;20.804;2024-01-11T01:14:08;35.70;;;14.05;;
75289;SDS011;63883;48.996;20.804;2024-01-11T01:16:33;31.05;;;12.05;;
75289;SDS011;63883;48.996;20.804;2024-01-11T01:18:59;35.15;;;12.63;;
75289;SDS011;63883;48.996;20.804;2024-01-11T01:21:25;32.50;;;13.00;;
75289;SDS011;63883;48.996;20.804;2024-01-11T01:23:50;43.15;;;14.73;;
75289;SDS011;63883;48.996;20.804;2024-01-11T01:26:16;34.38;;;13.52;;
75289;SDS011;63883;48.996;20.804;2024-01-11T01:28:42;34.42;;;13.82;;
75289;SDS011;63883;48.996;20.804;2024-01-11T01:31:08;42.10;;;14.68;;
75289;SDS011;63883;48.996;20.804;2024-01-11T01:33:33;39.78;;;15.02;;
75289;SDS011;63883;48.996;20.804;2024-01-11T01:35:59;42.38;;;15.82;;
75289;SDS011;63883;48.996;20.804;2024-01-11T01:38:24;40.92;;;15.60;;
75289;SDS011;63883;48.996;20.804;2024-01-11T01:40:50;37.05;;;15.82;;
75289;SDS011;63883;48.996;20.804;2024-01-11T01:43:16;40.67;;;15.60;;
75289;SDS011;63883;48.996;20.804;2024-01-11T01:45:41;35.15;;;16.40;;
75289;SDS011;63883;48.996;20.804;2024-01-11T01:48:07;41.53;;;16.58;;
75289;SDS011;63883;48.996;20.804;2024-01-11T01:50:33;39.13;;;14.70;;
75289;SDS011;63883;48.996;20.804;2024-01-11T01:52:59;45.40;;;16.20;;
75289;SDS011;63883;48.996;20.804;2024-01-11T01:55:26;33.50;;;15.23;;
75289;SDS011;63883;48.996;20.804;2024-01-11T01:57:54;31.48;;;14.45;;
75289;SDS011;63883;48.996;20.804;2024-01-11T02:00:20;40.17;;;15.07;;
75289;SDS011;63883;48.996;20.804;2024-01-11T02:02:46;34.85;;;14.77;;
75289;SDS011;63883;48.996;20.804;2024-01-11T02:05:16;41.20;;;16.90;;
75289;SDS011;63883;48.996;20.804;2024-01-11T02:07:42;43.28;;;15.48;;
75289;SDS011;63883;48.996;20.804;2024-01-11T02:10:09;35.70;;;14.18;;
75289;SDS011;63883;48.996;20.804;2024-01-11T02:12:36;36.17;;;14.50;;
75289;SDS011;63883;48.996;20.804;2024-01-11T02:17:30;27.80;;;11.52;;
75289;SDS011;63883;48.996;20.804;2024-01-11T02:19:57;31.90;;;13.75;;
75289;SDS011;63883;48.996;20.804;2024-01-11T02:22:32;34.28;;;14.98;;
75289;SDS011;63883;48.996;20.804;2024-01-11T02:25:01;34.83;;;14.65;;
75289;SDS011;63883;48.996;20.804;2024-01-11T02:27:27;34.85;;;14.60;;
75289;SDS011;63883;48.996;20.804;2024-01-11T02:29:53;44.95;;;17.98;;
75289;SDS011;63883;48.996;20.804;2024-01-11T02:32:19;37.10;;;15.07;;
75289;SDS011;63883;48.996;20.804;2024-01-11T02:34:45;36.95;;;14.55;;
75289;SDS011;63883;48.996;20.804;2024-01-11T02:37:11;39.88;;;16.58;;
75289;SDS011;63883;48.996;20.804;2024-01-11T02:39:36;36.13;;;16.60;;
75289;SDS011;63883;48.996;20.804;2024-01-11T02:42:03;32.63;;;11.20;;
75289;SDS011;63883;48.996;20.804;2024-01-11T02:44:28;35.58;;;14.15;;
75289;SDS011;63883;48.996;20.804;2024-01-11T02:46:54;38.63;;;15.27;;
75289;SDS011;63883;48.996;20.804;2024-01-11T02:49:20;33.15;;;14.02;;
75289;SDS011;63883;48.996;20.804;2024-01-11T02:51:46;34.85;;;13.68;;
75289;SDS011;63883;48.996;20.804;2024-01-11T02:54:11;40.05;;;15.05;;
75289;SDS011;63883;48.996;20.804;2024-01-11T02:56:37;28.70;;;14.13;;
75289;SDS011;63883;48.996;20.804;2024-01-11T02:59:03;38.95;;;15.05;;
75289;SDS011;63883;48.996;20.804;2024-01-11T03:01:28;34.22;;;14.30;;
75289;SDS011;63883;48.996;20.804;2024-01-11T03:03:54;35.13;;;15.93;;
75289;SDS011;63883;48.996;20.804;2024-01-11T03:06:21;42.05;;;14.77;;
75289;SDS011;63883;48.996;20.804;2024-01-11T03:08:48;36.70;;;16.15;;
75289;SDS011;63883;48.996;20.804;2024-01-11T03:11:14;34.08;;;14.48;;
75289;SDS011;63883;48.996;20.804;2024-01-11T03:13:40;44.30;;;15.73;;
75289;SDS011;63883;48.996;20.804;2024-01-11T03:16:05;42.10;;;16.63;;
75289;SDS011;63883;48.996;20.804;2024-01-11T03:18:31;40.03;;;16.60;;
75289;SDS011;63883;48.996;20.804;2024-01-11T03:20:57;36.92;;;16.83;;
75289;SDS011;63883;48.996;20.804;2024-01-11T03:23:22;43.58;;;17.45;;
75289;SDS011;63883;48.996;20.804;2024-01-11T03:25:48;43.00;;;16.08;;
75289;SDS011;63883;48.996;20.804;2024-01-11T03:28:14;40.13;;;15.88;;
75289;SDS011;63883;48.996;20.804;2024-01-11T03:30:40;43.80;;;16.92;;
75289;SDS011;63883;48.996;20.804;2024-01-11T03:33:05;40.33;;;17.95;;
75289;SDS011;63883;48.996;20.804;2024-01-11T03:35:31;39.15;;;15.35;;
75289;SDS011;63883;48.996;20.804;2024-01-11T03:37:57;37.42;;;14.77;;
75289;SDS011;63883;48.996;20.804;2024-01-11T03:40:22;35.35;;;14.20;;
75289;SDS011;63883;48.996;20.804;2024-01-11T03:42:48;30.08;;;13.02;;
75289;SDS011;63883;48.996;20.804;2024-01-11T03:45:17;29.67;;;13.50;;
75289;SDS011;63883;48.996;20.804;2024-01-11T03:47:44;36.63;;;14.68;;
75289;SDS011;63883;48.996;20.804;2024-01-11T03:50:10;32.95;;;13.73;;
75289;SDS011;63883;48.996;20.804;2024-01-11T03:52:35;34.33;;;13.95;;
75289;SDS011;63883;48.996;20.804;2024-01-11T03:55:01;36.10;;;13.60;;
75289;SDS011;63883;48.996;20.804;2024-01-11T03:57:27;34.95;;;13.07;;
75289;SDS011;63883;48.996;20.804;2024-01-11T03:59:52;29.80;;;13.07;;
75289;SDS011;63883;48.996;20.804;2024-01-11T04:02:18;29.60;;;13.00;;
75289;SDS011;63883;48.996;20.804;2024-01-11T04:04:44;38.45;;;13.20;;
75289;SDS011;63883;48.996;20.804;2024-01-11T04:07:10;36.55;;;14.23;;
75289;SDS011;63883;48.996;20.804;2024-01-11T04:09:38;37.47;;;12.88;;
75289;SDS011;63883;48.996;20.804;2024-01-11T04:12:04;37.17;;;13.73;;
75289;SDS011;63883;48.996;20.804;2024-01-11T04:14:31;37.53;;;14.52;;
75289;SDS011;63883;48.996;20.804;2024-01-11T04:16:57;27.75;;;12.32;;
75289;SDS011;63883;48.996;20.804;2024-01-11T04:19:22;29.17;;;12.57;;
75289;SDS011;63883;48.996;20.804;2024-01-11T04:21:48;25.83;;;11.98;;
75289;SDS011;63883;48.996;20.804;2024-01-11T04:24:14;23.67;;;11.95;;
75289;SDS011;63883;48.996;20.804;2024-01-11T04:26:40;22.00;;;11.73;;
75289;SDS011;63883;48.996;20.804;2024-01-11T04:29:05;49.22;;;17.50;;
75289;SDS011;63883;48.996;20.804;2024-01-11T04:31:31;30.52;;;14.07;;
75289;SDS011;63883;48.996;20.804;2024-01-11T04:33:57;33.95;;;13.50;;
75289;SDS011;63883;48.996;20.804;2024-01-11T04:36:22;26.60;;;12.38;;
75289;SDS011;63883;48.996;20.804;2024-01-11T04:38:48;27.25;;;11.90;;
75289;SDS011;63883;48.996;20.804;2024-01-11T04:41:14;26.85;;;12.52;;
75289;SDS011;63883;48.996;20.804;2024-01-11T04:43:41;37.25;;;12.57;;
75289;SDS011;63883;48.996;20.804;2024-01-11T04:46:20;26.27;;;11.68;;
75289;SDS011;63883;48.996;20.804;2024-01-11T04:48:47;23.02;;;9.90;;
75289;SDS011;63883;48.996;20.804;2024-01-11T04:51:14;27.55;;;11.35;;
75289;SDS011;63883;48.996;20.804;2024-01-11T04:53:42;25.92;;;12.18;;
75289;SDS011;63883;48.996;20.804;2024-01-11T04:56:08;23.67;;;11.05;;
75289;SDS011;63883;48.996;20.804;2024-01-11T04:58:36;21.27;;;9.73;;
75289;SDS011;63883;48.996;20.804;2024-01-11T05:01:03;28.15;;;11.32;;
75289;SDS011;63883;48.996;20.804;2024-01-11T05:03:29;28.92;;;13.73;;
75289;SDS011;63883;48.996;20.804;2024-01-11T05:05:55;40.80;;;15.48;;
75289;SDS011;63883;48.996;20.804;2024-01-11T05:08:21;41.10;;;16.40;;
75289;SDS011;63883;48.996;20.804;2024-01-11T05:10:47;28.35;;;14.75;;
75289;SDS011;63883;48.996;20.804;2024-01-11T05:13:12;43.50;;;19.75;;
75289;SDS011;63883;48.996;20.804;2024-01-11T05:15:38;31.92;;;16.27;;
75289;SDS011;63883;48.996;20.804;2024-01-11T05:18:04;27.23;;;13.05;;
75289;SDS011;63883;48.996;20.804;2024-01-11T05:20:29;29.30;;;14.70;;
75289;SDS011;63883;48.996;20.804;2024-01-11T05:22:55;36.63;;;14.68;;
75289;SDS011;63883;48.996;20.804;2024-01-11T05:25:21;34.92;;;17.95;;
75289;SDS011;63883;48.996;20.804;2024-01-11T05:27:46;33.55;;;16.20;;
75289;SDS011;63883;48.996;20.804;2024-01-11T05:30:12;33.63;;;16.48;;
75289;SDS011;63883;48.996;20.804;2024-01-11T05:32:38;35.47;;;16.40;;
75289;SDS011;63883;48.996;20.804;2024-01-11T05:35:04;42.20;;;18.55;;
75289;SDS011;63883;48.996;20.804;2024-01-11T05:37:30;41.28;;;18.13;;
75289;SDS011;63883;48.996;20.804;2024-01-11T05:39:55;42.78;;;18.52;;
75289;SDS011;63883;48.996;20.804;2024-01-11T05:42:23;36.55;;;17.73;;
75289;SDS011;63883;48.996;20.804;2024-01-11T05:44:49;45.45;;;18.48;;
75289;SDS011;63883;48.996;20.804;2024-01-11T05:47:14;48.00;;;19.92;;
75289;SDS011;63883;48.996;20.804;2024-01-11T05:49:40;46.20;;;19.90;;
75289;SDS011;63883;48.996;20.804;2024-01-11T05:52:06;51.25;;;21.55;;
75289;SDS011;63883;48.996;20.804;2024-01-11T05:54:31;77.47;;;30.58;;
75289;SDS011;63883;48.996;20.804;2024-01-11T05:56:57;61.75;;;24.88;;
75289;SDS011;63883;48.996;20.804;2024-01-11T05:59:24;46.40;;;22.08;;
75289;SDS011;63883;48.996;20.804;2024-01-11T06:01:50;45.30;;;19.27;;
75289;SDS011;63883;48.996;20.804;2024-01-11T06:04:16;46.63;;;20.83;;
75289;SDS011;63883;48.996;20.804;2024-01-11T06:06:42;54.88;;;22.60;;
75289;SDS011;63883;48.996;20.804;2024-01-11T06:09:07;59.15;;;23.98;;
75289;SDS011;63883;48.996;20.804;2024-01-11T06:11:33;68.75;;;23.92;;
75289;SDS011;63883;48.996;20.804;2024-01-11T06:13:59;62.40;;;23.15;;
75289;SDS011;63883;48.996;20.804;2024-01-11T06:16:26;77.07;;;26.75;;
75289;SDS011;63883;48.996;20.804;2024-01-11T06:18:51;59.55;;;23.70;;
75289;SDS011;63883;48.996;20.804;2024-01-11T06:21:17;58.53;;;23.02;;
75289;SDS011;63883;48.996;20.804;2024-01-11T06:23:43;50.85;;;21.27;;
75289;SDS011;63883;48.996;20.804;2024-01-11T06:26:09;63.33;;;25.40;;
75289;SDS011;63883;48.996;20.804;2024-01-11T06:28:34;63.22;;;25.10;;
75289;SDS011;63883;48.996;20.804;2024-01-11T06:31:00;56.65;;;21.42;;
75289;SDS011;63883;48.996;20.804;2024-01-11T06:33:26;65.90;;;22.80;;
75289;SDS011;63883;48.996;20.804;2024-01-11T06:35:52;58.67;;;22.00;;
75289;SDS011;63883;48.996;20.804;2024-01-11T06:38:17;51.90;;;20.85;;
75289;SDS011;63883;48.996;20.804;2024-01-11T06:40:43;49.97;;;20.45;;
75289;SDS011;63883;48.996;20.804;2024-01-11T06:43:08;39.60;;;15.68;;
75289;SDS011;63883;48.996;20.804;2024-01-11T06:45:34;36.95;;;17.25;;
75289;SDS011;63883;48.996;20.804;2024-01-11T06:48:00;33.78;;;14.43;;
75289;SDS011;63883;48.996;20.804;2024-01-11T06:50:26;33.65;;;16.67;;
75289;SDS011;63883;48.996;20.804;2024-01-11T06:52:51;35.42;;;16.05;;
75289;SDS011;63883;48.996;20.804;2024-01-11T06:55:17;35.38;;;15.45;;
75289;SDS011;63883;48.996;20.804;2024-01-11T06:57:46;40.30;;;16.92;;
75289;SDS011;63883;48.996;20.804;2024-01-11T07:00:12;38.25;;;15.60;;
75289;SDS011;63883;48.996;20.804;2024-01-11T07:02:38;31.83;;;14.80;;
75289;SDS011;63883;48.996;20.804;2024-01-11T07:05:06;33.15;;;14.32;;
75289;SDS011;63883;48.996;20.804;2024-01-11T07:07:31;32.88;;;13.52;;
75289;SDS011;63883;48.996;20.804;2024-01-11T07:09:58;29.55;;;12.82;;
75289;SDS011;63883;48.996;20.804;2024-01-11T07:12:24;30.33;;;13.00;;
75289;SDS011;63883;48.996;20.804;2024-01-11T07:14:51;39.25;;;17.67;;
75289;SDS011;63883;48.996;20.804;2024-01-11T07:17:17;49.30;;;21.63;;
75289;SDS011;63883;48.996;20.804;2024-01-11T07:19:43;48.97;;;21.23;;
75289;SDS011;63883;48.996;20.804;2024-01-11T07:22:08;53.65;;;20.00;;
75289;SDS011;63883;48.996;20.804;2024-01-11T07:24:34;47.03;;;19.23;;
75289;SDS011;63883;48.996;20.804;2024-01-11T07:27:06;49.53;;;22.10;;
75289;SDS011;63883;48.996;20.804;2024-01-11T07:29:35;51.10;;;22.40;;
75289;SDS011;63883;48.996;20.804;2024-01-11T07:32:01;67.80;;;25.15;;
75289;SDS011;63883;48.996;20.804;2024-01-11T07:34:27;57.50;;;25.55;;
75289;SDS011;63883;48.996;20.804;2024-01-11T07:36:53;64.82;;;27.23;;
75289;SDS011;63883;48.996;20.804;2024-01-11T07:39:19;57.40;;;22.85;;
75289;SDS011;63883;48.996;20.804;2024-01-11T07:41:45;49.33;;;21.98;;
75289;SDS011;63883;48.996;20.804;2024-01-11T07:44:11;58.35;;;23.95;;
75289;SDS011;63883;48.996;20.804;2024-01-11T07:46:36;58.22;;;24.90;;
75289;SDS011;63883;48.996;20.804;2024-01-11T07:49:02;56.45;;;22.98;;
75289;SDS011;63883;48.996;20.804;2024-01-11T07:51:28;55.05;;;22.05;;
75289;SDS011;63883;48.996;20.804;2024-01-11T07:53:54;49.95;;;23.15;;
75289;SDS011;63883;48.996;20.804;2024-01-11T07:56:20;48.83;;;23.10;;
75289;SDS011;63883;48.996;20.804;2024-01-11T07:58:45;49.00;;;22.27;;
75289;SDS011;63883;48.996;20.804;2024-01-11T08:01:11;52.75;;;22.92;;
75289;SDS011;63883;48.996;20.804;2024-01-11T08:03:38;53.95;;;20.90;;
75289;SDS011;63883;48.996;20.804;2024-01-11T08:06:04;39.83;;;17.67;;
75289;SDS011;63883;48.996;20.804;2024-01-11T08:08:33;44.38;;;18.33;;
75289;SDS011;63883;48.996;20.804;2024-01-11T08:10:59;53.97;;;22.38;;
75289;SDS011;63883;48.996;20.804;2024-01-11T08:13:25;47.95;;;19.08;;
75289;SDS011;63883;48.996;20.804;2024-01-11T08:15:50;45.70;;;19.35;;
75289;SDS011;63883;48.996;20.804;2024-01-11T08:18:19;46.50;;;19.73;;
75289;SDS011;63883;48.996;20.804;2024-01-11T08:20:45;48.20;;;18.17;;
75289;SDS011;63883;48.996;20.804;2024-01-11T08:23:10;44.63;;;18.00;;
75289;SDS011;63883;48.996;20.804;2024-01-11T08:25:36;122.18;;;48.10;;
75289;SDS011;63883;48.996;20.804;2024-01-11T08:28:02;40.88;;;18.83;;
75289;SDS011;63883;48.996;20.804;2024-01-11T08:30:28;42.00;;;19.33;;
75289;SDS011;63883;48.996;20.804;2024-01-11T08:32:54;43.20;;;18.88;;
75289;SDS011;63883;48.996;20.804;2024-01-11T08:35:20;34.90;;;15.85;;
75289;SDS011;63883;48.996;20.804;2024-01-11T08:37:46;35.22;;;16.90;;
75289;SDS011;63883;48.996;20.804;2024-01-11T08:40:12;37.13;;;15.10;;
75289;SDS011;63883;48.996;20.804;2024-01-11T08:42:38;41.83;;;18.40;;
75289;SDS011;63883;48.996;20.804;2024-01-11T08:45:05;32.20;;;14.77;;
75289;SDS011;63883;48.996;20.804;2024-01-11T08:47:33;36.80;;;16.25;;
75289;SDS011;63883;48.996;20.804;2024-01-11T08:49:59;39.75;;;17.50;;
75289;SDS011;63883;48.996;20.804;2024-01-11T08:52:25;44.30;;;20.08;;
75289;SDS011;63883;48.996;20.804;2024-01-11T08:54:51;47.55;;;22.45;;
75289;SDS011;63883;48.996;20.804;2024-01-11T08:57:17;48.95;;;22.05;;
75289;SDS011;63883;48.996;20.804;2024-01-11T08:59:42;40.70;;;18.33;;
75289;SDS011;63883;48.996;20.804;2024-01-11T09:02:08;37.05;;;16.35;;
75289;SDS011;63883;48.996;20.804;2024-01-11T09:04:33;42.10;;;19.65;;
75289;SDS011;63883;48.996;20.804;2024-01-11T09:07:00;44.35;;;20.08;;
75289;SDS011;63883;48.996;20.804;2024-01-11T09:09:25;44.75;;;20.48;;
75289;SDS011;63883;48.996;20.804;2024-01-11T09:11:51;44.17;;;20.05;;
75289;SDS011;63883;48.996;20.804;2024-01-11T09:14:17;65.35;;;25.17;;
75289;SDS011;63883;48.996;20.804;2024-01-11T09:16:42;58.42;;;25.65;;
75289;SDS011;63883;48.996;20.804;2024-01-11T09:19:10;56.25;;;27.17;;
75289;SDS011;63883;48.996;20.804;2024-01-11T09:21:36;61.53;;;25.05;;
75289;SDS011;63883;48.996;20.804;2024-01-11T09:24:02;60.58;;;23.40;;
75289;SDS011;63883;48.996;20.804;2024-01-11T09:26:27;58.45;;;25.23;;
75289;SDS011;63883;48.996;20.804;2024-01-11T09:28:53;49.10;;;22.75;;
75289;SDS011;63883;48.996;20.804;2024-01-11T09:31:19;57.20;;;25.10;;
75289;SDS011;63883;48.996;20.804;2024-01-11T09:33:44;53.85;;;24.63;;
75289;SDS011;63883;48.996;20.804;2024-01-11T09:36:11;55.70;;;24.52;;
75289;SDS011;63883;48.996;20.804;2024-01-11T09:38:38;58.35;;;24.00;;
75289;SDS011;63883;48.996;20.804;2024-01-11T09:41:08;56.13;;;25.00;;
75289;SDS011;63883;48.996;20.804;2024-01-11T09:43:36;51.15;;;23.63;;
75289;SDS011;63883;48.996;20.804;2024-01-11T09:46:05;57.20;;;25.60;;
75289;SDS011;63883;48.996;20.804;2024-01-11T09:48:34;66.97;;;27.35;;
75289;SDS011;63883;48.996;20.804;2024-01-11T09:51:01;60.10;;;26.23;;
75289;SDS011;63883;48.996;20.804;2024-01-11T09:53:31;62.67;;;28.58;;
75289;SDS011;63883;48.996;20.804;2024-01-11T09:55:58;60.38;;;27.30;;
75289;SDS011;63883;48.996;20.804;2024-01-11T09:58:24;66.15;;;28.48;;
75289;SDS011;63883;48.996;20.804;2024-01-11T10:00:53;60.03;;;26.35;;
75289;SDS011;63883;48.996;20.804;2024-01-11T10:03:20;61.40;;;24.50;;
75289;SDS011;63883;48.996;20.804;2024-01-11T10:05:48;46.95;;;22.40;;
75289;SDS011;63883;48.996;20.804;2024-01-11T10:08:16;57.38;;;24.13;;
75289;SDS011;63883;48.996;20.804;2024-01-11T10:10:44;52.58;;;22.75;;
75289;SDS011;63883;48.996;20.804;2024-01-11T10:13:10;50.90;;;21.40;;
75289;SDS011;63883;48.996;20.804;2024-01-11T10:15:36;48.75;;;21.95;;
75289;SDS011;63883;48.996;20.804;2024-01-11T10:18:02;51.17;;;22.48;;
75289;SDS011;63883;48.996;20.804;2024-01-11T10:20:27;52.67;;;23.27;;
75289;SDS011;63883;48.996;20.804;2024-01-11T10:22:56;50.20;;;22.55;;
75289;SDS011;63883;48.996;20.804;2024-01-11T10:25:22;51.45;;;22.17;;
75289;SDS011;63883;48.996;20.804;2024-01-11T10:27:48;46.58;;;21.58;;
75289;SDS011;63883;48.996;20.804;2024-01-11T10:30:16;46.42;;;22.60;;
75289;SDS011;63883;48.996;20.804;2024-01-11T10:32:42;47.70;;;21.38;;
75289;SDS011;63883;48.996;20.804;2024-01-11T10:35:09;46.28;;;21.27;;
75289;SDS011;63883;48.996;20.804;2024-01-11T10:37:35;48.78;;;21.45;;
75289;SDS011;63883;48.996;20.804;2024-01-11T10:40:04;47.30;;;21.08;;
75289;SDS011;63883;48.996;20.804;2024-01-11T10:42:35;45.40;;;20.88;;
75289;SDS011;63883;48.996;20.804;2024-01-11T10:45:08;42.20;;;18.63;;
75289;SDS011;63883;48.996;20.804;2024-01-11T10:47:39;43.53;;;19.85;;
75289;SDS011;63883;48.996;20.804;2024-01-11T10:50:19;45.30;;;19.00;;
75289;SDS011;63883;48.996;20.804;2024-01-11T10:52:54;44.28;;;16.98;;
75289;SDS011;63883;48.996;20.804;2024-01-11T10:55:21;37.05;;;17.52;;
75289;SDS011;63883;48.996;20.804;2024-01-11T10:57:47;39.53;;;19.15;;
75289;SDS011;63883;48.996;20.804;2024-01-11T11:00:14;44.53;;;21.92;;
75289;SDS011;63883;48.996;20.804;2024-01-11T11:02:41;37.78;;;17.85;;
75289;SDS011;63883;48.996;20.804;2024-01-11T11:05:08;31.15;;;13.85;;
75289;SDS011;63883;48.996;20.804;2024-01-11T11:07:38;27.85;;;12.40;;
75289;SDS011;63883;48.996;20.804;2024-01-11T11:10:05;28.98;;;12.75;;
75289;SDS011;63883;48.996;20.804;2024-01-11T11:12:33;26.80;;;13.57;;
75289;SDS011;63883;48.996;20.804;2024-01-11T11:15:01;24.27;;;12.25;;
75289;SDS011;63883;48.996;20.804;2024-01-11T11:17:28;28.05;;;12.70;;
75289;SDS011;63883;48.996;20.804;2024-01-11T11:19:54;29.85;;;13.98;;
75289;SDS011;63883;48.996;20.804;2024-01-11T11:22:20;26.95;;;12.23;;
75289;SDS011;63883;48.996;20.804;2024-01-11T11:24:46;29.45;;;14.10;;
75289;SDS011;63883;48.996;20.804;2024-01-11T11:27:15;30.13;;;13.20;;
75289;SDS011;63883;48.996;20.804;2024-01-11T11:29:41;54.05;;;21.65;;
75289;SDS011;63883;48.996;20.804;2024-01-11T11:32:11;35.92;;;15.77;;
75289;SDS011;63883;48.996;20.804;2024-01-11T11:37:09;29.40;;;13.73;;
75289;SDS011;63883;48.996;20.804;2024-01-11T11:39:35;32.58;;;14.73;;
75289;SDS011;63883;48.996;20.804;2024-01-11T11:42:01;27.15;;;13.32;;
75289;SDS011;63883;48.996;20.804;2024-01-11T11:44:28;29.88;;;14.70;;
75289;SDS011;63883;48.996;20.804;2024-01-11T11:46:54;34.83;;;15.45;;
75289;SDS011;63883;48.996;20.804;2024-01-11T11:49:19;33.38;;;15.50;;
75289;SDS011;63883;48.996;20.804;2024-01-11T11:51:45;35.80;;;16.25;;
75289;SDS011;63883;48.996;20.804;2024-01-11T11:54:11;30.40;;;14.85;;
75289;SDS011;63883;48.996;20.804;2024-01-11T11:56:39;28.25;;;14.18;;
75289;SDS011;63883;48.996;20.804;2024-01-11T11:59:06;30.27;;;16.73;;
75289;SDS011;63883;48.996;20.804;2024-01-11T12:01:32;37.00;;;18.25;;
75289;SDS011;63883;48.996;20.804;2024-01-11T12:03:58;48.05;;;22.63;;
75289;SDS011;63883;48.996;20.804;2024-01-11T12:06:23;44.53;;;21.85;;
75289;SDS011;63883;48.996;20.804;2024-01-11T12:08:51;49.13;;;24.20;;
75289;SDS011;63883;48.996;20.804;2024-01-11T12:11:19;47.92;;;22.42;;
75289;SDS011;63883;48.996;20.804;2024-01-11T12:13:50;51.13;;;23.75;;
75289;SDS011;63883;48.996;20.804;2024-01-11T12:16:15;49.33;;;23.83;;
75289;SDS011;63883;48.996;20.804;2024-01-11T12:18:41;47.65;;;23.67;;
75289;SDS011;63883;48.996;20.804;2024-01-11T12:21:07;50.75;;;25.10;;
75289;SDS011;63883;48.996;20.804;2024-01-11T12:23:34;49.33;;;22.85;;
75289;SDS011;63883;48.996;20.804;2024-01-11T12:26:03;48.03;;;23.05;;
75289;SDS011;63883;48.996;20.804;2024-01-11T12:28:33;51.35;;;24.25;;
75289;SDS011;63883;48.996;20.804;2024-01-11T12:30:59;53.65;;;24.42;;
75289;SDS011;63883;48.996;20.804;2024-01-11T12:33:26;54.67;;;23.85;;
75289;SDS011;63883;48.996;20.804;2024-01-11T12:35:52;48.22;;;23.20;;
75289;SDS011;63883;48.996;20.804;2024-01-11T12:38:18;56.05;;;24.98;;
75289;SDS011;63883;48.996;20.804;2024-01-11T12:40:43;64.70;;;26.20;;
75289;SDS011;63883;48.996;20.804;2024-01-11T12:43:12;46.85;;;21.77;;
75289;SDS011;63883;48.996;20.804;2024-01-11T12:45:38;41.70;;;20.90;;
75289;SDS011;63883;48.996;20.804;2024-01-11T12:48:08;59.10;;;25.48;;
75289;SDS011;63883;48.996;20.804;2024-01-11T12:50:34;40.65;;;18.63;;
75289;SDS011;63883;48.996;20.804;2024-01-11T12:53:07;47.55;;;22.40;;
75289;SDS011;63883;48.996;20.804;2024-01-11T12:55:45;46.15;;;20.98;;
75289;SDS011;63883;48.996;20.804;2024-01-11T12:58:18;50.47;;;21.77;;
75289;SDS011;63883;48.996;20.804;2024-01-11T13:00:45;40.40;;;19.83;;
75289;SDS011;63883;48.996;20.804;2024-01-11T13:03:11;48.33;;;22.38;;
75289;SDS011;63883;48.996;20.804;2024-01-11T13:05:37;46.60;;;21.70;;
75289;SDS011;63883;48.996;20.804;2024-01-11T13:08:09;49.40;;;22.75;;
75289;SDS011;63883;48.996;20.804;2024-01-11T13:10:35;56.58;;;26.05;;
75289;SDS011;63883;48.996;20.804;2024-01-11T13:13:02;62.38;;;25.88;;
75289;SDS011;63883;48.996;20.804;2024-01-11T13:15:28;58.58;;;26.13;;
75289;SDS011;63883;48.996;20.804;2024-01-11T13:17:57;43.72;;;20.33;;
75289;SDS011;63883;48.996;20.804;2024-01-11T13:20:24;49.25;;;21.92;;
75289;SDS011;63883;48.996;20.804;2024-01-11T13:22:53;42.88;;;20.88;;
75289;SDS011;63883;48.996;20.804;2024-01-11T13:25:36;41.53;;;20.13;;
75289;SDS011;63883;48.996;20.804;2024-01-11T13:28:02;44.25;;;22.17;;
75289;SDS011;63883;48.996;20.804;2024-01-11T13:30:28;44.97;;;20.92;;
75289;SDS011;63883;48.996;20.804;2024-01-11T13:32:53;49.20;;;22.75;;
75289;SDS011;63883;48.996;20.804;2024-01-11T13:35:19;48.83;;;21.90;;
75289;SDS011;63883;48.996;20.804;2024-01-11T13:37:45;48.20;;;21.63;;
75289;SDS011;63883;48.996;20.804;2024-01-11T13:40:11;43.03;;;22.15;;
75289;SDS011;63883;48.996;20.804;2024-01-11T13:42:39;48.83;;;22.08;;
75289;SDS011;63883;48.996;20.804;2024-01-11T13:45:05;47.13;;;22.50;;
75289;SDS011;63883;48.996;20.804;2024-01-11T13:47:34;50.35;;;22.85;;
75289;SDS011;63883;48.996;20.804;2024-01-11T13:50:00;45.58;;;21.13;;
75289;SDS011;63883;48.996;20.804;2024-01-11T13:52:26;41.72;;;18.88;;
75289;SDS011;63883;48.996;20.804;2024-01-11T13:54:52;44.63;;;20.90;;
75289;SDS011;63883;48.996;20.804;2024-01-11T13:57:18;43.35;;;20.02;;
75289;SDS011;63883;48.996;20.804;2024-01-11T13:59:43;41.20;;;19.98;;
75289;SDS011;63883;48.996;20.804;2024-01-11T14:02:09;51.53;;;23.58;;
75289;SDS011;63883;48.996;20.804;2024-01-11T14:04:34;44.97;;;20.40;;
75289;SDS011;63883;48.996;20.804;2024-01-11T14:07:00;53.75;;;24.25;;
75289;SDS011;63883;48.996;20.804;2024-01-11T14:09:28;45.13;;;21.88;;